createdAt,value
2019-04-04T00:01:54.702Z,34.48
2019-04-04T00:04:25.373Z,34.03
2019-04-04T00:06:58.092Z,40.95
2019-04-04T00:09:29.183Z,35.20
2019-04-04T00:12:00.717Z,34.13
2019-04-04T00:14:33.006Z,37.03
2019-04-04T00:17:04.069Z,35.33
2019-04-04T00:19:35.348Z,37.83
2019-04-04T00:22:06.967Z,39.92
2019-04-04T00:24:39.364Z,32.33
2019-04-04T00:27:11.219Z,34.25
2019-04-04T00:29:42.985Z,36.05
2019-04-04T00:32:14.046Z,31.65
2019-04-04T00:34:45.228Z,28.30
2019-04-04T00:37:16.563Z,34.50
2019-04-04T00:39:47.850Z,31.55
2019-04-04T00:42:18.840Z,39.88
2019-04-04T00:44:49.748Z,33.65
2019-04-04T00:47:20.998Z,33.58
2019-04-04T00:49:52.114Z,31.62
2019-04-04T00:52:23.404Z,40.30
2019-04-04T00:54:54.359Z,30.45
2019-04-04T00:57:25.737Z,29.42
2019-04-04T00:59:56.677Z,29.27
2019-04-04T01:02:27.975Z,32.28
2019-04-04T01:05:01.260Z,33.53
2019-04-04T01:07:33.908Z,33.28
2019-04-04T01:10:08.385Z,29.37
2019-04-04T01:12:39.376Z,28.77
2019-04-04T01:15:12.392Z,31.82
2019-04-04T01:17:44.550Z,30.45
2019-04-04T01:20:15.472Z,33.28
2019-04-04T01:22:47.765Z,28.00
2019-04-04T01:25:19.417Z,28.25
2019-04-04T01:27:50.460Z,34.08
2019-04-04T01:30:22.581Z,28.20
2019-04-04T01:32:53.888Z,32.53
2019-04-04T01:35:24.512Z,31.93
2019-04-04T01:37:56.075Z,35.38
2019-04-04T01:40:27.985Z,31.52
2019-04-04T01:42:59.041Z,34.15
2019-04-04T01:45:29.814Z,33.50
2019-04-04T01:48:01.056Z,35.78
2019-04-04T01:50:32.031Z,31.17
2019-04-04T01:53:03.362Z,28.30
2019-04-04T01:55:35.134Z,29.42
2019-04-04T01:58:08.024Z,34.67
2019-04-04T02:00:39.106Z,28.47
2019-04-04T02:03:09.932Z,26.73
2019-04-04T02:05:41.059Z,33.90
2019-04-04T02:08:11.604Z,32.48
2019-04-04T02:10:42.228Z,30.02
2019-04-04T02:13:13.182Z,27.93
2019-04-04T02:15:44.746Z,30.92
2019-04-04T02:18:16.410Z,39.50
2019-04-04T02:20:47.383Z,29.75
2019-04-04T02:23:18.723Z,30.20
2019-04-04T02:25:50.423Z,34.48
2019-04-04T02:28:21.708Z,32.65
2019-04-04T02:30:53.499Z,33.98
2019-04-04T02:33:24.437Z,33.33
2019-04-04T02:35:55.402Z,36.93
2019-04-04T02:38:28.022Z,33.40
2019-04-04T02:40:58.614Z,34.25
2019-04-04T02:43:29.820Z,35.60
2019-04-04T02:46:00.749Z,41.30
2019-04-04T02:48:32.022Z,38.25
2019-04-04T02:51:07.062Z,38.23
2019-04-04T02:53:35.834Z,41.50
2019-04-04T02:56:06.766Z,36.08
2019-04-04T02:58:37.690Z,34.58
2019-04-04T03:01:08.432Z,32.42
2019-04-04T03:03:42.127Z,34.60
2019-04-04T03:06:12.155Z,35.17
2019-04-04T03:08:43.073Z,30.70
2019-04-04T03:11:14.079Z,33.93
2019-04-04T03:13:45.294Z,33.73
2019-04-04T03:16:21.136Z,33.40
2019-04-04T03:18:48.930Z,34.35
2019-04-04T03:21:23.373Z,36.10
2019-04-04T03:23:52.526Z,44.93
2019-04-04T03:26:23.354Z,33.60
2019-04-04T03:28:54.169Z,37.90
2019-04-04T03:31:25.196Z,39.03
2019-04-04T03:33:56.268Z,39.23
2019-04-04T03:36:27.023Z,37.83
2019-04-04T03:38:58.321Z,39.27
2019-04-04T03:41:30.654Z,36.97
2019-04-04T03:44:02.216Z,38.83
2019-04-04T03:46:38.402Z,33.28
2019-04-04T03:49:06.045Z,33.77
2019-04-04T03:51:37.967Z,39.58
2019-04-04T03:54:11.249Z,41.60
2019-04-04T03:56:42.229Z,35.90
2019-04-04T03:59:14.350Z,46.67
2019-04-04T04:01:46.868Z,44.38
2019-04-04T04:04:18.437Z,42.70
2019-04-04T04:06:50.113Z,34.90
2019-04-04T04:09:23.443Z,37.30
2019-04-04T04:11:54.223Z,40.10
2019-04-04T04:14:25.277Z,40.70
2019-04-04T04:16:56.930Z,38.73
2019-04-04T04:19:30.955Z,36.98
2019-04-04T04:22:00.267Z,46.37
2019-04-04T04:24:31.424Z,37.40
2019-04-04T04:27:02.123Z,34.63
2019-04-04T04:29:33.338Z,40.93
2019-04-04T04:32:04.273Z,39.07
2019-04-04T04:34:35.364Z,39.23
2019-04-04T04:37:06.354Z,43.30
2019-04-04T04:39:41.191Z,40.40
2019-04-04T04:42:09.744Z,35.97
2019-04-04T04:44:40.401Z,36.07
2019-04-04T04:47:11.491Z,42.17
2019-04-04T04:49:43.477Z,43.53
2019-04-04T04:52:15.355Z,42.03
2019-04-04T04:54:48.100Z,41.07
2019-04-04T04:57:29.425Z,43.00
2019-04-04T04:59:51.570Z,47.20
2019-04-04T05:02:23.238Z,41.10
2019-04-04T05:04:54.656Z,42.43
2019-04-04T05:07:26.109Z,39.40
2019-04-04T05:09:57.290Z,38.42
2019-04-04T05:12:28.359Z,36.88
2019-04-04T05:15:01.425Z,41.90
2019-04-04T05:17:32.078Z,39.27
2019-04-04T05:20:03.596Z,33.23
2019-04-04T05:22:35.095Z,38.97
2019-04-04T05:25:08.675Z,42.43
2019-04-04T05:27:39.575Z,35.80
2019-04-04T05:30:10.747Z,40.88
2019-04-04T05:32:41.906Z,35.28
2019-04-04T05:35:15.245Z,39.83
2019-04-04T05:37:47.472Z,33.27
2019-04-04T05:40:18.508Z,43.75
2019-04-04T05:42:49.686Z,39.83
2019-04-04T05:45:20.766Z,34.77
2019-04-04T05:47:55.123Z,42.47
2019-04-04T05:50:25.083Z,37.85
2019-04-04T05:52:56.541Z,36.03
2019-04-04T05:55:27.457Z,35.70
2019-04-04T05:57:59.258Z,36.03
2019-04-04T06:00:30.563Z,37.23
2019-04-04T06:03:01.520Z,31.75
2019-04-04T06:05:32.843Z,35.60
2019-04-04T06:08:07.803Z,37.95
2019-04-04T06:10:38.336Z,43.48
2019-04-04T06:13:10.982Z,35.52
2019-04-04T06:15:42.282Z,34.75
2019-04-04T06:18:13.921Z,35.58
2019-04-04T06:20:48.366Z,36.25
2019-04-04T06:23:21.023Z,34.50
2019-04-04T06:25:51.964Z,35.85
2019-04-04T06:28:23.826Z,39.70
2019-04-04T06:30:54.982Z,35.25
2019-04-04T06:33:25.888Z,44.90
2019-04-04T06:35:57.007Z,36.08
2019-04-04T06:38:28.566Z,38.65
2019-04-04T06:41:00.950Z,39.38
2019-04-04T06:43:32.470Z,46.02
2019-04-04T06:46:03.637Z,40.50
2019-04-04T06:48:34.235Z,43.60
2019-04-04T06:51:05.020Z,30.82
2019-04-04T06:53:36.041Z,31.17
2019-04-04T06:56:07.198Z,42.48
2019-04-04T06:58:40.039Z,35.70
2019-04-04T07:01:11.437Z,40.25
2019-04-04T07:03:42.567Z,34.13
2019-04-04T07:06:13.928Z,31.82
2019-04-04T07:08:46.750Z,42.58
2019-04-04T07:11:21.631Z,31.77
2019-04-04T07:13:51.417Z,32.67
2019-04-04T07:16:22.808Z,29.07
2019-04-04T07:18:54.012Z,38.08
2019-04-04T07:21:25.801Z,35.15
2019-04-04T07:23:59.424Z,28.90
2019-04-04T07:26:29.765Z,26.57
2019-04-04T07:29:01.296Z,26.45
2019-04-04T07:31:34.046Z,26.20
2019-04-04T07:34:06.136Z,31.65
2019-04-04T07:36:37.509Z,32.35
2019-04-04T07:39:08.273Z,32.78
2019-04-04T07:41:40.795Z,27.70
2019-04-04T07:44:12.839Z,37.05
2019-04-04T07:46:45.706Z,27.30
2019-04-04T07:49:17.570Z,26.65
2019-04-04T07:51:48.931Z,27.58
2019-04-04T07:54:19.948Z,30.12
2019-04-04T07:56:52.154Z,31.23
2019-04-04T07:59:23.436Z,31.27
2019-04-04T08:01:54.437Z,26.20
2019-04-04T08:04:25.649Z,25.00
2019-04-04T08:06:56.811Z,31.93
2019-04-04T08:09:28.803Z,32.15
2019-04-04T08:12:00.192Z,37.10
2019-04-04T08:14:31.248Z,22.27
2019-04-04T08:17:02.731Z,26.25
2019-04-04T08:19:33.942Z,25.62
2019-04-04T08:22:05.190Z,29.32
2019-04-04T08:24:36.417Z,29.82
2019-04-04T08:27:08.240Z,22.27
2019-04-04T08:29:40.761Z,20.95
2019-04-04T08:32:15.357Z,27.77
2019-04-04T08:34:46.639Z,24.82
2019-04-04T08:37:17.705Z,29.77
2019-04-04T08:39:49.043Z,24.23
2019-04-04T08:42:20.360Z,25.65
2019-04-04T08:44:51.549Z,30.15
2019-04-04T08:47:23.266Z,33.53
2019-04-04T08:49:54.468Z,22.27
2019-04-04T08:52:25.703Z,28.25
2019-04-04T08:54:57.451Z,21.02
2019-04-04T08:57:28.514Z,23.00
2019-04-04T09:00:00.016Z,21.95
2019-04-04T09:02:31.608Z,21.90
2019-04-04T09:05:11.988Z,28.35
2019-04-04T09:07:36.186Z,20.95
2019-04-04T09:10:07.517Z,28.90
2019-04-04T09:12:39.605Z,19.40
2019-04-04T09:15:11.609Z,30.20
2019-04-04T09:17:43.105Z,17.62
2019-04-04T09:20:13.990Z,22.37
2019-04-04T09:22:45.261Z,21.33
2019-04-04T09:25:16.728Z,20.88
2019-04-04T09:27:48.011Z,23.92
2019-04-04T09:30:19.395Z,19.02
2019-04-04T09:32:50.408Z,15.90
2019-04-04T09:35:21.623Z,19.65
2019-04-04T09:37:52.890Z,27.48
2019-04-04T09:40:23.919Z,16.32
2019-04-04T09:42:54.813Z,18.70
2019-04-04T09:45:26.420Z,18.25
2019-04-04T09:47:58.119Z,21.40
2019-04-04T09:50:28.866Z,17.12
2019-04-04T09:53:01.070Z,18.10
2019-04-04T09:55:33.082Z,23.47
2019-04-04T09:58:04.425Z,24.23
2019-04-04T10:00:35.579Z,27.30
2019-04-04T10:03:06.764Z,17.75
2019-04-04T10:05:38.316Z,17.57
2019-04-04T10:08:09.334Z,14.28
2019-04-04T10:10:40.679Z,19.98
2019-04-04T10:13:11.924Z,15.48
2019-04-04T10:15:44.078Z,18.20
2019-04-04T10:18:15.339Z,13.55
2019-04-04T10:20:46.495Z,19.92
2019-04-04T10:23:17.605Z,16.87
2019-04-04T10:25:48.426Z,19.20
2019-04-04T10:28:19.551Z,14.75
2019-04-04T10:30:51.151Z,21.02
2019-04-04T10:33:23.429Z,18.10
2019-04-04T10:35:55.103Z,14.25
2019-04-04T10:38:26.795Z,22.55
2019-04-04T10:40:58.463Z,15.03
2019-04-04T10:43:29.588Z,13.75
2019-04-04T10:46:00.971Z,12.20
2019-04-04T10:48:32.672Z,16.87
2019-04-04T10:51:05.037Z,20.12
2019-04-04T10:53:45.333Z,13.45
2019-04-04T10:56:16.757Z,15.32
2019-04-04T10:58:47.569Z,13.98
2019-04-04T11:01:19.100Z,14.30
2019-04-04T11:03:51.386Z,29.90
2019-04-04T11:06:23.086Z,13.05
2019-04-04T11:08:55.071Z,15.88
2019-04-04T11:11:26.649Z,13.43
2019-04-04T11:13:59.538Z,14.03
2019-04-04T11:16:34.020Z,13.95
2019-04-04T11:19:04.897Z,14.13
2019-04-04T11:21:35.753Z,15.68
2019-04-04T11:24:08.022Z,13.03
2019-04-04T11:26:49.612Z,14.43
2019-04-04T11:29:41.624Z,14.43
2019-04-04T11:32:17.255Z,10.05
2019-04-04T11:35:01.321Z,15.32
2019-04-04T11:37:42.854Z,21.48
2019-04-04T11:40:14.996Z,13.25
2019-04-04T11:42:46.232Z,18.87
2019-04-04T11:45:17.393Z,13.85
2019-04-04T11:47:49.584Z,15.68
2019-04-04T11:50:20.931Z,15.03
2019-04-04T11:52:51.801Z,13.15
2019-04-04T11:55:23.042Z,14.85
2019-04-04T11:57:54.219Z,11.60
2019-04-04T12:00:27.259Z,16.93
2019-04-04T12:03:02.648Z,15.68
2019-04-04T12:05:35.571Z,17.77
2019-04-04T12:08:17.884Z,15.68
2019-04-04T12:10:50.724Z,14.00
2019-04-04T12:13:35.429Z,15.25
2019-04-04T12:16:07.718Z,18.80
2019-04-04T12:18:41.422Z,10.63
2019-04-04T12:21:14.799Z,9.78
2019-04-04T12:23:51.669Z,12.60
2019-04-04T12:26:23.009Z,15.03
2019-04-04T12:28:54.201Z,16.00
2019-04-04T12:31:25.444Z,15.20
2019-04-04T12:33:58.805Z,11.43
2019-04-04T12:36:30.025Z,17.12
2019-04-04T12:39:02.420Z,23.92
2019-04-04T12:41:34.945Z,18.23
2019-04-04T12:44:07.185Z,15.90
2019-04-04T12:46:42.593Z,13.20
2019-04-04T12:49:15.317Z,15.45
2019-04-04T12:51:46.802Z,16.93
2019-04-04T12:54:18.538Z,11.83
2019-04-04T12:56:50.528Z,13.13
2019-04-04T12:59:37.994Z,11.90
2019-04-04T13:02:09.855Z,16.35
2019-04-04T13:04:41.529Z,13.90
2019-04-04T13:07:12.596Z,12.20
2019-04-04T13:09:45.102Z,12.90
2019-04-04T13:12:19.502Z,28.52
2019-04-04T13:14:51.919Z,11.65
2019-04-04T13:17:24.899Z,15.20
2019-04-04T13:19:56.796Z,15.08
2019-04-04T13:22:27.666Z,12.07
2019-04-04T13:24:58.718Z,16.10
2019-04-04T13:27:30.051Z,14.45
2019-04-04T13:30:02.170Z,17.10
2019-04-04T13:32:34.068Z,14.28
2019-04-04T13:35:06.012Z,21.00
2019-04-04T13:37:37.546Z,15.90
2019-04-04T13:40:09.355Z,17.15
2019-04-04T13:42:40.494Z,19.90
2019-04-04T13:45:12.220Z,18.07
2019-04-04T13:47:44.280Z,14.65
2019-04-04T13:50:19.675Z,20.82
2019-04-04T13:52:48.400Z,18.40
2019-04-04T13:55:32.723Z,22.58
2019-04-04T13:58:05.428Z,17.30
2019-04-04T14:00:37.107Z,13.28
2019-04-04T14:03:08.187Z,15.35
2019-04-04T14:05:39.187Z,17.60
2019-04-04T14:08:10.418Z,16.95
2019-04-04T14:10:41.956Z,12.70
2019-04-04T14:13:14.482Z,16.97
2019-04-04T14:15:47.705Z,14.55
2019-04-04T14:18:20.401Z,20.40
2019-04-04T14:21:02.903Z,13.78
2019-04-04T14:23:26.144Z,13.18
2019-04-04T14:25:59.657Z,14.70
2019-04-04T14:28:30.960Z,18.35
2019-04-04T14:31:03.071Z,15.88
2019-04-04T14:33:34.331Z,15.03
2019-04-04T14:36:04.999Z,16.20
2019-04-04T14:38:35.882Z,16.23
2019-04-04T14:41:11.482Z,13.80
2019-04-04T14:43:39.753Z,19.70
2019-04-04T14:46:10.675Z,13.75
2019-04-04T14:48:43.022Z,13.98
2019-04-04T14:51:13.950Z,11.90
2019-04-04T14:53:45.165Z,14.50
2019-04-04T14:56:16.530Z,13.68
2019-04-04T14:58:47.721Z,13.83
2019-04-04T15:01:18.419Z,12.25
2019-04-04T15:03:49.415Z,13.13
2019-04-04T15:06:20.391Z,10.80
2019-04-04T15:08:51.471Z,14.38
2019-04-04T15:11:24.210Z,10.10
2019-04-04T15:13:55.362Z,16.27
2019-04-04T15:16:26.652Z,12.23
2019-04-04T15:18:57.352Z,10.23
2019-04-04T15:21:28.589Z,25.62
2019-04-04T15:23:59.972Z,14.95
2019-04-04T15:26:30.976Z,14.07
2019-04-04T15:29:02.117Z,18.77
2019-04-04T15:31:33.951Z,14.53
2019-04-04T15:34:05.525Z,13.22
2019-04-04T15:36:36.699Z,22.90
2019-04-04T15:39:08.049Z,18.32
2019-04-04T15:41:39.533Z,14.00
2019-04-04T15:44:10.750Z,18.48
2019-04-04T15:46:41.679Z,16.95
2019-04-04T15:49:13.075Z,16.15
2019-04-04T15:51:44.441Z,13.60
2019-04-04T15:54:15.658Z,14.75
2019-04-04T15:56:46.770Z,32.48
2019-04-04T15:59:17.577Z,31.85
2019-04-04T16:01:49.320Z,22.32
2019-04-04T16:04:20.397Z,12.10
2019-04-04T16:06:51.817Z,13.15
2019-04-04T16:09:23.076Z,15.10
2019-04-04T16:11:53.934Z,18.25
2019-04-04T16:14:25.128Z,14.25
2019-04-04T16:16:56.525Z,20.37
2019-04-04T16:19:28.216Z,15.72
2019-04-04T16:21:59.788Z,10.93
2019-04-04T16:24:30.956Z,9.93
2019-04-04T16:27:03.028Z,12.23
2019-04-04T16:29:35.719Z,10.28
2019-04-04T16:32:07.390Z,12.18
2019-04-04T16:34:39.055Z,12.65
2019-04-04T16:37:09.876Z,12.88
2019-04-04T16:39:40.843Z,12.55
2019-04-04T16:42:11.967Z,9.33
2019-04-04T16:44:43.613Z,14.73
2019-04-04T16:47:14.964Z,19.70
2019-04-04T16:49:46.416Z,20.65
2019-04-04T16:52:17.467Z,10.40
2019-04-04T16:54:48.623Z,10.50
2019-04-04T16:57:19.610Z,9.03
2019-04-04T16:59:51.293Z,22.55
2019-04-04T17:02:23.621Z,9.50
2019-04-04T17:04:54.886Z,10.95
2019-04-04T17:07:29.086Z,15.13
2019-04-04T17:10:00.274Z,10.55
2019-04-04T17:12:31.772Z,10.82
2019-04-04T17:15:03.349Z,9.28
2019-04-04T17:17:34.668Z,13.68
2019-04-04T17:20:07.638Z,14.47
2019-04-04T17:22:39.916Z,15.13
2019-04-04T17:25:11.556Z,11.45
2019-04-04T17:27:42.453Z,12.40
2019-04-04T17:30:13.780Z,9.83
2019-04-04T17:32:47.899Z,12.20
2019-04-04T17:35:18.924Z,9.43
2019-04-04T17:37:50.397Z,10.98
2019-04-04T17:40:21.502Z,16.07
2019-04-04T17:42:52.457Z,15.60
2019-04-04T17:45:23.418Z,16.25
2019-04-04T17:47:54.589Z,15.35
2019-04-04T17:50:25.531Z,18.77
2019-04-04T17:52:56.539Z,14.83
2019-04-04T17:55:27.647Z,12.98
2019-04-04T17:58:00.076Z,18.25
2019-04-04T18:00:31.234Z,14.35
2019-04-04T18:03:02.558Z,17.87
2019-04-04T18:05:34.943Z,19.65
2019-04-04T18:08:05.885Z,23.75
2019-04-04T18:10:37.936Z,36.93
2019-04-04T18:13:08.855Z,35.80
2019-04-04T18:15:39.420Z,34.50
2019-04-04T18:18:09.981Z,39.50
2019-04-04T18:20:40.580Z,36.95
2019-04-04T18:23:11.510Z,72.82
2019-04-04T18:25:42.230Z,37.25
2019-04-04T18:28:12.783Z,32.80
2019-04-04T18:30:44.511Z,31.52
2019-04-04T18:33:15.086Z,35.40
2019-04-04T18:35:45.698Z,43.33
2019-04-04T18:38:16.239Z,42.67
2019-04-04T18:40:47.734Z,37.75
2019-04-04T18:43:18.398Z,43.17
2019-04-04T18:45:50.882Z,47.95
2019-04-04T18:48:21.590Z,46.40
2019-04-04T18:50:52.118Z,45.83
2019-04-04T18:53:22.494Z,34.58
2019-04-04T18:55:53.273Z,38.08
2019-04-04T18:58:23.957Z,43.80
2019-04-04T19:00:54.583Z,59.33
2019-04-04T19:03:25.238Z,73.35
2019-04-04T19:05:55.853Z,60.28
2019-04-04T19:08:26.431Z,60.43
2019-04-04T19:10:57.277Z,62.50
2019-04-04T19:13:38.499Z,52.90
2019-04-04T19:16:03.516Z,44.42
2019-04-04T19:18:35.310Z,48.65
2019-04-04T19:21:06.825Z,37.38
2019-04-04T19:23:48.586Z,42.80
2019-04-04T19:26:10.902Z,42.58
2019-04-04T19:28:41.693Z,40.38
2019-04-04T19:31:13.102Z,43.52
2019-04-04T19:33:43.806Z,51.55
2019-04-04T19:36:14.526Z,63.83
2019-04-04T19:38:45.262Z,68.83
2019-04-04T19:41:15.934Z,72.03
2019-04-04T19:43:46.608Z,68.65
2019-04-04T19:46:18.461Z,84.22
2019-04-04T19:48:49.262Z,67.12
2019-04-04T19:51:19.750Z,63.17
2019-04-04T19:53:50.553Z,79.40
2019-04-04T19:58:53.173Z,66.07
2019-04-04T20:01:25.709Z,57.70
2019-04-04T20:03:56.967Z,87.35
2019-04-04T20:06:27.690Z,87.67
2019-04-04T20:08:58.280Z,80.72
2019-04-04T20:11:28.892Z,92.37
2019-04-04T20:13:59.531Z,54.90
2019-04-04T20:16:30.526Z,59.00
2019-04-04T20:19:01.123Z,63.95
2019-04-04T20:21:31.496Z,69.82
2019-04-04T20:24:02.097Z,66.77
2019-04-04T20:26:32.532Z,76.37
2019-04-04T20:29:03.045Z,68.17
2019-04-04T20:31:33.582Z,66.75
2019-04-04T20:34:05.926Z,58.00
2019-04-04T20:36:36.066Z,62.95
2019-04-04T20:39:07.251Z,60.50
2019-04-04T20:41:37.799Z,89.50
2019-04-04T20:44:08.394Z,111.20
2019-04-04T20:46:39.015Z,95.50
2019-04-04T20:49:09.685Z,105.40
2019-04-04T20:51:40.113Z,74.50
2019-04-04T20:54:10.597Z,61.80
2019-04-04T20:56:40.989Z,77.15
2019-04-04T20:59:11.518Z,56.00
2019-04-04T21:01:42.004Z,49.98
2019-04-04T21:04:12.501Z,54.08
2019-04-04T21:06:44.547Z,52.60
2019-04-04T21:09:16.288Z,49.50
2019-04-04T21:11:47.493Z,54.75
2019-04-04T21:14:18.660Z,68.83
2019-04-04T21:16:49.385Z,44.10
2019-04-04T21:19:20.196Z,40.30
2019-04-04T21:21:52.530Z,46.48
2019-04-04T21:24:23.626Z,37.15
2019-04-04T21:26:54.589Z,41.10
2019-04-04T21:29:25.406Z,46.42
2019-04-04T21:31:59.761Z,52.75
2019-04-04T21:34:30.972Z,44.38
2019-04-04T21:37:02.125Z,52.90
2019-04-04T21:39:33.629Z,35.33
2019-04-04T21:42:05.012Z,35.23
2019-04-04T21:44:36.252Z,41.80
2019-04-04T21:47:07.202Z,47.60
2019-04-04T21:49:38.313Z,40.35
2019-04-04T21:52:09.319Z,43.20
2019-04-04T21:54:43.551Z,46.75
2019-04-04T21:57:14.316Z,49.15
2019-04-04T21:59:45.439Z,49.95
2019-04-04T22:02:16.198Z,47.23
2019-04-04T22:04:47.160Z,50.48
2019-04-04T22:07:18.475Z,42.43
2019-04-04T22:09:50.004Z,41.30
2019-04-04T22:12:21.962Z,42.38
2019-04-04T22:14:53.969Z,43.92
2019-04-04T22:17:25.440Z,44.25
2019-04-04T22:19:56.457Z,47.25
2019-04-04T22:22:28.160Z,42.10
2019-04-04T22:24:59.365Z,46.75
2019-04-04T22:27:31.137Z,44.80
2019-04-04T22:30:02.478Z,45.43
2019-04-04T22:32:37.698Z,45.67
2019-04-04T22:35:08.718Z,49.30
2019-04-04T22:37:39.652Z,41.80
2019-04-04T22:40:10.698Z,49.18
2019-04-04T22:42:41.929Z,39.55
2019-04-04T22:45:12.963Z,35.85
2019-04-04T22:47:44.122Z,39.15
2019-04-04T22:50:15.550Z,37.53
2019-04-04T22:52:46.914Z,42.67
2019-04-04T22:55:18.021Z,38.53
2019-04-04T22:57:48.765Z,38.13
2019-04-04T23:00:19.874Z,40.45
2019-04-04T23:02:51.052Z,44.20
2019-04-04T23:05:21.906Z,46.53
2019-04-04T23:07:52.969Z,41.70
2019-04-04T23:10:24.128Z,46.25
2019-04-04T23:12:55.567Z,41.77
2019-04-04T23:15:26.631Z,41.10
2019-04-04T23:17:57.747Z,43.55
2019-04-04T23:20:28.826Z,42.83
2019-04-04T23:23:01.309Z,42.13
2019-04-04T23:25:32.423Z,43.30
2019-04-04T23:28:03.314Z,39.03
2019-04-04T23:30:34.707Z,40.83
2019-04-04T23:33:06.679Z,46.95
2019-04-04T23:35:37.516Z,43.65
2019-04-04T23:38:08.208Z,41.53
2019-04-04T23:40:39.442Z,43.02
2019-04-04T23:43:10.737Z,40.75
2019-04-04T23:45:41.954Z,40.17
2019-04-04T23:48:13.020Z,42.93
2019-04-04T23:50:44.101Z,40.10
2019-04-04T23:53:15.525Z,46.23
2019-04-04T23:55:46.493Z,39.80
2019-04-04T23:58:17.726Z,40.28
